sensor_id;sensor_type;location;lat;lon;timestamp;temperature;humidity
46898;DHT22;32646;50.958;6.258;2024-01-30T00:01:39;5.30;99.90
46898;DHT22;32646;50.958;6.258;2024-01-30T00:04:07;5.30;99.90
46898;DHT22;32646;50.958;6.258;2024-01-30T00:06:36;5.30;99.90
46898;DHT22;32646;50.958;6.258;2024-01-30T00:09:02;5.40;99.90
46898;DHT22;32646;50.958;6.258;2024-01-30T00:11:29;5.50;99.90
46898;DHT22;32646;50.958;6.258;2024-01-30T00:13:56;5.60;99.90
46898;DHT22;32646;50.958;6.258;2024-01-30T00:16:23;5.50;99.90
46898;DHT22;32646;50.958;6.258;2024-01-30T00:18:51;5.60;99.90
46898;DHT22;32646;50.958;6.258;2024-01-30T00:21:18;5.70;99.90
46898;DHT22;32646;50.958;6.258;2024-01-30T00:23:46;5.80;99.90
46898;DHT22;32646;50.958;6.258;2024-01-30T00:26:13;5.90;99.90
46898;DHT22;32646;50.958;6.258;2024-01-30T00:28:40;5.70;99.90
46898;DHT22;32646;50.958;6.258;2024-01-30T00:31:07;5.70;99.90
46898;DHT22;32646;50.958;6.258;2024-01-30T00:33:34;5.70;99.90
46898;DHT22;32646;50.958;6.258;2024-01-30T00:36:00;5.90;99.90
46898;DHT22;32646;50.958;6.258;2024-01-30T00:38:27;5.80;99.90
46898;DHT22;32646;50.958;6.258;2024-01-30T00:40:53;5.70;99.90
46898;DHT22;32646;50.958;6.258;2024-01-30T00:43:20;5.70;99.90
46898;DHT22;32646;50.958;6.258;2024-01-30T00:45:47;6.00;99.90
46898;DHT22;32646;50.958;6.258;2024-01-30T00:48:13;6.00;99.90
46898;DHT22;32646;50.958;6.258;2024-01-30T00:50:40;5.90;99.90
46898;DHT22;32646;50.958;6.258;2024-01-30T00:53:07;5.90;99.90
46898;DHT22;32646;50.958;6.258;2024-01-30T00:55:33;6.10;99.90
46898;DHT22;32646;50.958;6.258;2024-01-30T00:58:00;6.40;99.90
46898;DHT22;32646;50.958;6.258;2024-01-30T01:00:27;6.80;99.90
46898;DHT22;32646;50.958;6.258;2024-01-30T01:02:54;7.00;99.90
46898;DHT22;32646;50.958;6.258;2024-01-30T01:05:21;7.20;99.90
46898;DHT22;32646;50.958;6.258;2024-01-30T01:07:47;7.40;99.90
46898;DHT22;32646;50.958;6.258;2024-01-30T01:10:15;7.60;99.90
46898;DHT22;32646;50.958;6.258;2024-01-30T01:12:42;7.60;99.90
46898;DHT22;32646;50.958;6.258;2024-01-30T01:15:09;7.80;99.90
46898;DHT22;32646;50.958;6.258;2024-01-30T01:17:36;7.90;99.90
46898;DHT22;32646;50.958;6.258;2024-01-30T01:20:04;7.90;99.90
46898;DHT22;32646;50.958;6.258;2024-01-30T01:22:31;7.90;99.90
46898;DHT22;32646;50.958;6.258;2024-01-30T01:24:58;8.10;99.90
46898;DHT22;32646;50.958;6.258;2024-01-30T01:27:25;8.10;99.50
46898;DHT22;32646;50.958;6.258;2024-01-30T01:29:52;8.20;98.50
46898;DHT22;32646;50.958;6.258;2024-01-30T01:32:19;8.10;96.00
46898;DHT22;32646;50.958;6.258;2024-01-30T01:34:46;8.00;96.80
46898;DHT22;32646;50.958;6.258;2024-01-30T01:37:13;7.80;98.10
46898;DHT22;32646;50.958;6.258;2024-01-30T01:39:39;7.70;98.90
46898;DHT22;32646;50.958;6.258;2024-01-30T01:42:06;7.60;99.90
46898;DHT22;32646;50.958;6.258;2024-01-30T01:44:33;7.60;99.90
46898;DHT22;32646;50.958;6.258;2024-01-30T01:46:59;7.60;99.90
46898;DHT22;32646;50.958;6.258;2024-01-30T01:49:27;7.80;99.90
46898;DHT22;32646;50.958;6.258;2024-01-30T01:51:55;7.70;99.90
46898;DHT22;32646;50.958;6.258;2024-01-30T01:54:22;7.70;99.60
46898;DHT22;32646;50.958;6.258;2024-01-30T01:56:51;7.60;99.90
46898;DHT22;32646;50.958;6.258;2024-01-30T01:59:18;7.60;99.90
46898;DHT22;32646;50.958;6.258;2024-01-30T02:01:46;7.60;99.90
46898;DHT22;32646;50.958;6.258;2024-01-30T02:04:13;7.50;99.90
46898;DHT22;32646;50.958;6.258;2024-01-30T02:06:40;7.40;99.90
46898;DHT22;32646;50.958;6.258;2024-01-30T02:09:07;7.40;99.90
46898;DHT22;32646;50.958;6.258;2024-01-30T02:11:34;7.30;99.90
46898;DHT22;32646;50.958;6.258;2024-01-30T02:14:04;7.50;99.90
46898;DHT22;32646;50.958;6.258;2024-01-30T02:16:32;7.80;99.90
46898;DHT22;32646;50.958;6.258;2024-01-30T02:18:58;7.90;99.90
46898;DHT22;32646;50.958;6.258;2024-01-30T02:21:25;8.10;99.90
46898;DHT22;32646;50.958;6.258;2024-01-30T02:23:52;8.20;99.30
46898;DHT22;32646;50.958;6.258;2024-01-30T02:26:19;8.40;97.50
46898;DHT22;32646;50.958;6.258;2024-01-30T02:28:46;8.40;96.80
46898;DHT22;32646;50.958;6.258;2024-01-30T02:31:12;8.60;96.10
46898;DHT22;32646;50.958;6.258;2024-01-30T02:33:39;8.60;93.80
46898;DHT22;32646;50.958;6.258;2024-01-30T02:36:06;8.50;93.00
46898;DHT22;32646;50.958;6.258;2024-01-30T02:38:33;8.30;93.70
46898;DHT22;32646;50.958;6.258;2024-01-30T02:40:59;8.20;95.20
46898;DHT22;32646;50.958;6.258;2024-01-30T02:43:26;8.00;95.70
46898;DHT22;32646;50.958;6.258;2024-01-30T02:45:52;7.90;96.60
46898;DHT22;32646;50.958;6.258;2024-01-30T02:48:19;7.70;97.30
46898;DHT22;32646;50.958;6.258;2024-01-30T02:50:46;7.60;98.60
46898;DHT22;32646;50.958;6.258;2024-01-30T02:53:12;7.40;98.40
46898;DHT22;32646;50.958;6.258;2024-01-30T02:55:39;7.30;99.40
46898;DHT22;32646;50.958;6.258;2024-01-30T02:58:05;7.20;99.90
46898;DHT22;32646;50.958;6.258;2024-01-30T03:00:32;7.00;99.90
46898;DHT22;32646;50.958;6.258;2024-01-30T03:02:59;7.10;99.90
46898;DHT22;32646;50.958;6.258;2024-01-30T03:05:25;7.20;99.90
46898;DHT22;32646;50.958;6.258;2024-01-30T03:07:52;7.10;99.90
46898;DHT22;32646;50.958;6.258;2024-01-30T03:10:19;7.00;99.90
46898;DHT22;32646;50.958;6.258;2024-01-30T03:12:45;7.10;99.90
46898;DHT22;32646;50.958;6.258;2024-01-30T03:15:12;7.10;99.90
46898;DHT22;32646;50.958;6.258;2024-01-30T03:17:40;7.00;99.90
46898;DHT22;32646;50.958;6.258;2024-01-30T03:20:07;6.70;99.90
46898;DHT22;32646;50.958;6.258;2024-01-30T03:22:34;6.70;99.90
46898;DHT22;32646;50.958;6.258;2024-01-30T03:25:00;6.90;99.90
46898;DHT22;32646;50.958;6.258;2024-01-30T03:27:27;7.00;99.90
46898;DHT22;32646;50.958;6.258;2024-01-30T03:29:54;6.80;99.90
46898;DHT22;32646;50.958;6.258;2024-01-30T03:32:20;6.80;99.90
46898;DHT22;32646;50.958;6.258;2024-01-30T03:34:47;6.80;99.90
46898;DHT22;32646;50.958;6.258;2024-01-30T03:37:14;7.00;99.90
46898;DHT22;32646;50.958;6.258;2024-01-30T03:39:41;7.10;99.90
46898;DHT22;32646;50.958;6.258;2024-01-30T03:42:07;7.10;99.90
46898;DHT22;32646;50.958;6.258;2024-01-30T03:44:34;7.10;99.90
46898;DHT22;32646;50.958;6.258;2024-01-30T03:47:00;7.10;99.90
46898;DHT22;32646;50.958;6.258;2024-01-30T03:49:27;7.00;99.90
46898;DHT22;32646;50.958;6.258;2024-01-30T03:51:54;7.00;99.90
46898;DHT22;32646;50.958;6.258;2024-01-30T03:54:20;7.00;99.90
46898;DHT22;32646;50.958;6.258;2024-01-30T03:56:47;7.00;99.90
46898;DHT22;32646;50.958;6.258;2024-01-30T03:59:13;7.10;99.90
46898;DHT22;32646;50.958;6.258;2024-01-30T04:01:40;7.30;99.90
46898;DHT22;32646;50.958;6.258;2024-01-30T04:04:07;7.40;99.90
46898;DHT22;32646;50.958;6.258;2024-01-30T04:06:33;7.40;99.90
46898;DHT22;32646;50.958;6.258;2024-01-30T04:09:00;7.30;99.90
46898;DHT22;32646;50.958;6.258;2024-01-30T04:11:27;7.30;99.90
46898;DHT22;32646;50.958;6.258;2024-01-30T04:13:53;7.40;99.90
46898;DHT22;32646;50.958;6.258;2024-01-30T04:16:23;7.40;99.90
46898;DHT22;32646;50.958;6.258;2024-01-30T04:18:50;7.40;99.90
46898;DHT22;32646;50.958;6.258;2024-01-30T04:21:17;7.50;99.90
46898;DHT22;32646;50.958;6.258;2024-01-30T04:23:44;7.50;99.90
46898;DHT22;32646;50.958;6.258;2024-01-30T04:26:10;7.40;99.90
46898;DHT22;32646;50.958;6.258;2024-01-30T04:28:37;7.40;99.90
46898;DHT22;32646;50.958;6.258;2024-01-30T04:31:04;7.30;99.90
46898;DHT22;32646;50.958;6.258;2024-01-30T04:33:30;7.40;99.90
46898;DHT22;32646;50.958;6.258;2024-01-30T04:35:57;7.40;99.90
46898;DHT22;32646;50.958;6.258;2024-01-30T04:38:23;7.50;99.90
46898;DHT22;32646;50.958;6.258;2024-01-30T04:40:50;7.60;99.90
46898;DHT22;32646;50.958;6.258;2024-01-30T04:43:17;7.60;99.90
46898;DHT22;32646;50.958;6.258;2024-01-30T04:45:43;7.70;99.90
46898;DHT22;32646;50.958;6.258;2024-01-30T04:48:10;7.60;99.90
46898;DHT22;32646;50.958;6.258;2024-01-30T04:50:37;7.60;99.90
46898;DHT22;32646;50.958;6.258;2024-01-30T04:53:03;7.40;99.90
46898;DHT22;32646;50.958;6.258;2024-01-30T04:55:30;7.30;99.90
46898;DHT22;32646;50.958;6.258;2024-01-30T04:57:57;7.20;99.90
46898;DHT22;32646;50.958;6.258;2024-01-30T05:00:23;7.00;99.90
46898;DHT22;32646;50.958;6.258;2024-01-30T05:02:50;6.90;99.90
46898;DHT22;32646;50.958;6.258;2024-01-30T05:05:16;6.80;99.90
46898;DHT22;32646;50.958;6.258;2024-01-30T05:07:43;6.70;99.90
46898;DHT22;32646;50.958;6.258;2024-01-30T05:10:09;6.70;99.90
46898;DHT22;32646;50.958;6.258;2024-01-30T05:12:36;6.80;99.90
46898;DHT22;32646;50.958;6.258;2024-01-30T05:15:03;6.80;99.90
46898;DHT22;32646;50.958;6.258;2024-01-30T05:17:30;6.80;99.90
46898;DHT22;32646;50.958;6.258;2024-01-30T05:19:56;6.80;99.90
46898;DHT22;32646;50.958;6.258;2024-01-30T05:22:23;6.90;99.90
46898;DHT22;32646;50.958;6.258;2024-01-30T05:24:52;7.00;99.90
46898;DHT22;32646;50.958;6.258;2024-01-30T05:27:19;6.90;99.90
46898;DHT22;32646;50.958;6.258;2024-01-30T05:29:45;6.80;99.90
46898;DHT22;32646;50.958;6.258;2024-01-30T05:32:12;6.70;99.90
46898;DHT22;32646;50.958;6.258;2024-01-30T05:34:39;6.80;99.90
46898;DHT22;32646;50.958;6.258;2024-01-30T05:37:05;6.80;99.90
46898;DHT22;32646;50.958;6.258;2024-01-30T05:39:32;6.90;99.90
46898;DHT22;32646;50.958;6.258;2024-01-30T05:41:59;6.90;99.90
46898;DHT22;32646;50.958;6.258;2024-01-30T05:44:25;6.90;99.90
46898;DHT22;32646;50.958;6.258;2024-01-30T05:46:52;6.80;99.90
46898;DHT22;32646;50.958;6.258;2024-01-30T05:49:18;6.80;99.90
46898;DHT22;32646;50.958;6.258;2024-01-30T05:51:45;6.60;99.90
46898;DHT22;32646;50.958;6.258;2024-01-30T05:54:12;6.50;99.90
46898;DHT22;32646;50.958;6.258;2024-01-30T05:56:43;6.40;99.90
46898;DHT22;32646;50.958;6.258;2024-01-30T05:59:09;6.40;99.90
46898;DHT22;32646;50.958;6.258;2024-01-30T06:01:36;6.50;99.90
46898;DHT22;32646;50.958;6.258;2024-01-30T06:04:03;6.50;99.90
46898;DHT22;32646;50.958;6.258;2024-01-30T06:06:30;6.60;99.90
46898;DHT22;32646;50.958;6.258;2024-01-30T06:08:56;6.70;99.90
46898;DHT22;32646;50.958;6.258;2024-01-30T06:11:23;6.80;99.90
46898;DHT22;32646;50.958;6.258;2024-01-30T06:13:49;7.00;99.90
46898;DHT22;32646;50.958;6.258;2024-01-30T06:16:16;7.20;99.90
46898;DHT22;32646;50.958;6.258;2024-01-30T06:18:43;7.50;99.90
46898;DHT22;32646;50.958;6.258;2024-01-30T06:21:09;7.50;99.90
46898;DHT22;32646;50.958;6.258;2024-01-30T06:23:38;7.50;99.90
46898;DHT22;32646;50.958;6.258;2024-01-30T06:26:07;7.50;99.90
46898;DHT22;32646;50.958;6.258;2024-01-30T06:28:33;7.50;99.90
46898;DHT22;32646;50.958;6.258;2024-01-30T06:31:01;7.50;99.90
46898;DHT22;32646;50.958;6.258;2024-01-30T06:33:28;7.50;99.90
46898;DHT22;32646;50.958;6.258;2024-01-30T06:35:54;7.50;99.90
46898;DHT22;32646;50.958;6.258;2024-01-30T06:38:21;7.70;99.90
46898;DHT22;32646;50.958;6.258;2024-01-30T06:40:47;7.60;99.90
46898;DHT22;32646;50.958;6.258;2024-01-30T06:43:14;7.50;99.90
46898;DHT22;32646;50.958;6.258;2024-01-30T06:45:41;7.40;99.90
46898;DHT22;32646;50.958;6.258;2024-01-30T06:48:07;7.30;99.90
46898;DHT22;32646;50.958;6.258;2024-01-30T06:50:34;7.20;99.90
46898;DHT22;32646;50.958;6.258;2024-01-30T06:53:01;7.30;99.90
46898;DHT22;32646;50.958;6.258;2024-01-30T06:55:27;7.30;99.90
46898;DHT22;32646;50.958;6.258;2024-01-30T06:57:54;7.40;99.90
46898;DHT22;32646;50.958;6.258;2024-01-30T07:00:21;7.50;99.90
46898;DHT22;32646;50.958;6.258;2024-01-30T07:02:47;7.60;99.90
46898;DHT22;32646;50.958;6.258;2024-01-30T07:05:14;7.60;99.90
46898;DHT22;32646;50.958;6.258;2024-01-30T07:07:41;7.70;99.90
46898;DHT22;32646;50.958;6.258;2024-01-30T07:10:08;7.80;99.90
46898;DHT22;32646;50.958;6.258;2024-01-30T07:12:35;7.80;99.90
46898;DHT22;32646;50.958;6.258;2024-01-30T07:15:01;7.70;99.90
46898;DHT22;32646;50.958;6.258;2024-01-30T07:17:28;7.80;99.90
46898;DHT22;32646;50.958;6.258;2024-01-30T07:19:54;7.70;99.90
46898;DHT22;32646;50.958;6.258;2024-01-30T07:22:21;7.70;99.90
46898;DHT22;32646;50.958;6.258;2024-01-30T07:24:48;7.80;99.90
46898;DHT22;32646;50.958;6.258;2024-01-30T07:27:15;7.90;99.90
46898;DHT22;32646;50.958;6.258;2024-01-30T07:29:42;7.90;99.90
46898;DHT22;32646;50.958;6.258;2024-01-30T07:32:08;8.10;99.90
46898;DHT22;32646;50.958;6.258;2024-01-30T07:34:35;8.40;99.90
46898;DHT22;32646;50.958;6.258;2024-01-30T07:37:15;8.40;99.90
46898;DHT22;32646;50.958;6.258;2024-01-30T07:39:42;8.30;99.90
46898;DHT22;32646;50.958;6.258;2024-01-30T07:42:08;8.50;99.90
46898;DHT22;32646;50.958;6.258;2024-01-30T07:44:35;8.70;99.90
46898;DHT22;32646;50.958;6.258;2024-01-30T07:47:02;9.10;99.90
46898;DHT22;32646;50.958;6.258;2024-01-30T07:49:28;9.50;99.90
46898;DHT22;32646;50.958;6.258;2024-01-30T07:51:55;9.70;97.80
46898;DHT22;32646;50.958;6.258;2024-01-30T07:54:22;9.80;95.60
46898;DHT22;32646;50.958;6.258;2024-01-30T07:56:48;10.40;91.60
46898;DHT22;32646;50.958;6.258;2024-01-30T07:59:15;10.50;86.90
46898;DHT22;32646;50.958;6.258;2024-01-30T08:01:41;10.60;83.60
46898;DHT22;32646;50.958;6.258;2024-01-30T08:04:08;10.70;81.10
46898;DHT22;32646;50.958;6.258;2024-01-30T08:06:35;10.80;78.30
46898;DHT22;32646;50.958;6.258;2024-01-30T08:09:02;10.80;78.70
46898;DHT22;32646;50.958;6.258;2024-01-30T08:11:28;10.60;80.50
46898;DHT22;32646;50.958;6.258;2024-01-30T08:13:55;10.70;80.60
46898;DHT22;32646;50.958;6.258;2024-01-30T08:16:22;10.90;76.60
46898;DHT22;32646;50.958;6.258;2024-01-30T08:18:48;10.90;75.70
46898;DHT22;32646;50.958;6.258;2024-01-30T08:21:15;10.80;76.50
46898;DHT22;32646;50.958;6.258;2024-01-30T08:23:42;10.90;74.90
46898;DHT22;32646;50.958;6.258;2024-01-30T08:26:08;10.80;76.10
46898;DHT22;32646;50.958;6.258;2024-01-30T08:28:35;10.80;77.20
46898;DHT22;32646;50.958;6.258;2024-01-30T08:31:02;10.70;77.90
46898;DHT22;32646;50.958;6.258;2024-01-30T08:33:28;10.60;79.10
46898;DHT22;32646;50.958;6.258;2024-01-30T08:35:55;10.50;80.10
46898;DHT22;32646;50.958;6.258;2024-01-30T08:38:21;10.40;83.00
46898;DHT22;32646;50.958;6.258;2024-01-30T08:40:48;10.30;86.30
46898;DHT22;32646;50.958;6.258;2024-01-30T08:43:15;10.10;86.40
46898;DHT22;32646;50.958;6.258;2024-01-30T08:45:42;9.90;90.10
46898;DHT22;32646;50.958;6.258;2024-01-30T08:48:08;9.80;91.40
46898;DHT22;32646;50.958;6.258;2024-01-30T08:50:35;9.80;92.20
46898;DHT22;32646;50.958;6.258;2024-01-30T08:53:02;9.80;91.90
46898;DHT22;32646;50.958;6.258;2024-01-30T08:55:29;9.80;91.50
46898;DHT22;32646;50.958;6.258;2024-01-30T08:57:56;10.00;91.40
46898;DHT22;32646;50.958;6.258;2024-01-30T09:00:23;10.10;91.20
46898;DHT22;32646;50.958;6.258;2024-01-30T09:02:49;10.20;90.80
46898;DHT22;32646;50.958;6.258;2024-01-30T09:05:16;10.10;91.00
46898;DHT22;32646;50.958;6.258;2024-01-30T09:07:43;10.10;91.60
46898;DHT22;32646;50.958;6.258;2024-01-30T09:10:10;10.10;91.70
46898;DHT22;32646;50.958;6.258;2024-01-30T09:12:40;10.00;91.90
46898;DHT22;32646;50.958;6.258;2024-01-30T09:15:07;10.00;93.40
46898;DHT22;32646;50.958;6.258;2024-01-30T09:17:34;10.10;94.30
46898;DHT22;32646;50.958;6.258;2024-01-30T09:20:00;10.10;93.60
46898;DHT22;32646;50.958;6.258;2024-01-30T09:22:27;10.10;94.40
46898;DHT22;32646;50.958;6.258;2024-01-30T09:24:54;10.10;93.80
46898;DHT22;32646;50.958;6.258;2024-01-30T09:27:21;10.20;94.80
46898;DHT22;32646;50.958;6.258;2024-01-30T09:29:47;10.20;93.60
46898;DHT22;32646;50.958;6.258;2024-01-30T09:32:14;10.40;95.80
46898;DHT22;32646;50.958;6.258;2024-01-30T09:34:41;10.50;94.80
46898;DHT22;32646;50.958;6.258;2024-01-30T09:37:08;10.70;91.10
46898;DHT22;32646;50.958;6.258;2024-01-30T09:39:34;10.90;91.60
46898;DHT22;32646;50.958;6.258;2024-01-30T09:42:05;11.00;89.20
46898;DHT22;32646;50.958;6.258;2024-01-30T09:44:35;10.90;90.10
46898;DHT22;32646;50.958;6.258;2024-01-30T09:47:04;11.20;82.00
46898;DHT22;32646;50.958;6.258;2024-01-30T09:49:34;11.30;74.50
46898;DHT22;32646;50.958;6.258;2024-01-30T09:52:05;11.60;70.50
46898;DHT22;32646;50.958;6.258;2024-01-30T09:54:32;11.50;72.00
46898;DHT22;32646;50.958;6.258;2024-01-30T09:57:03;11.60;71.80
46898;DHT22;32646;50.958;6.258;2024-01-30T09:59:29;11.60;74.10
46898;DHT22;32646;50.958;6.258;2024-01-30T10:01:57;11.60;75.70
46898;DHT22;32646;50.958;6.258;2024-01-30T10:04:23;11.70;73.50
46898;DHT22;32646;50.958;6.258;2024-01-30T10:06:51;11.80;72.50
46898;DHT22;32646;50.958;6.258;2024-01-30T10:09:18;12.00;67.90
46898;DHT22;32646;50.958;6.258;2024-01-30T10:11:44;11.90;68.90
46898;DHT22;32646;50.958;6.258;2024-01-30T10:14:11;11.80;70.90
46898;DHT22;32646;50.958;6.258;2024-01-30T10:16:37;11.90;70.70
46898;DHT22;32646;50.958;6.258;2024-01-30T10:19:04;11.80;71.40
46898;DHT22;32646;50.958;6.258;2024-01-30T10:21:31;11.90;70.40
46898;DHT22;32646;50.958;6.258;2024-01-30T10:23:57;11.90;70.00
46898;DHT22;32646;50.958;6.258;2024-01-30T10:26:24;11.90;70.20
46898;DHT22;32646;50.958;6.258;2024-01-30T10:28:51;11.90;70.30
46898;DHT22;32646;50.958;6.258;2024-01-30T10:31:18;11.90;71.70
46898;DHT22;32646;50.958;6.258;2024-01-30T10:33:45;11.90;71.20
46898;DHT22;32646;50.958;6.258;2024-01-30T10:36:14;11.80;72.90
46898;DHT22;32646;50.958;6.258;2024-01-30T10:38:44;12.00;71.60
46898;DHT22;32646;50.958;6.258;2024-01-30T10:41:13;11.90;72.40
46898;DHT22;32646;50.958;6.258;2024-01-30T10:43:41;12.00;71.80
46898;DHT22;32646;50.958;6.258;2024-01-30T10:46:11;12.00;71.30
46898;DHT22;32646;50.958;6.258;2024-01-30T10:48:43;12.00;73.20
46898;DHT22;32646;50.958;6.258;2024-01-30T10:51:11;12.10;71.00
46898;DHT22;32646;50.958;6.258;2024-01-30T10:53:38;12.20;71.40
46898;DHT22;32646;50.958;6.258;2024-01-30T10:56:06;12.00;73.70
46898;DHT22;32646;50.958;6.258;2024-01-30T10:58:33;12.00;75.70
46898;DHT22;32646;50.958;6.258;2024-01-30T11:01:00;12.00;77.70
46898;DHT22;32646;50.958;6.258;2024-01-30T11:03:27;12.00;80.00
46898;DHT22;32646;50.958;6.258;2024-01-30T11:05:59;12.00;79.70
46898;DHT22;32646;50.958;6.258;2024-01-30T11:08:26;12.00;80.50
46898;DHT22;32646;50.958;6.258;2024-01-30T11:10:56;12.00;81.50
46898;DHT22;32646;50.958;6.258;2024-01-30T11:13:27;12.00;81.70
46898;DHT22;32646;50.958;6.258;2024-01-30T11:15:54;12.00;83.70
46898;DHT22;32646;50.958;6.258;2024-01-30T11:18:25;11.90;85.60
46898;DHT22;32646;50.958;6.258;2024-01-30T11:20:51;12.00;84.10
46898;DHT22;32646;50.958;6.258;2024-01-30T11:23:18;11.90;85.00
46898;DHT22;32646;50.958;6.258;2024-01-30T11:25:45;11.90;85.10
46898;DHT22;32646;50.958;6.258;2024-01-30T11:28:15;11.90;86.70
46898;DHT22;32646;50.958;6.258;2024-01-30T11:30:42;11.80;87.20
46898;DHT22;32646;50.958;6.258;2024-01-30T11:33:09;11.90;86.00
46898;DHT22;32646;50.958;6.258;2024-01-30T11:35:37;11.80;88.50
46898;DHT22;32646;50.958;6.258;2024-01-30T11:38:05;11.80;89.30
46898;DHT22;32646;50.958;6.258;2024-01-30T11:40:33;11.80;89.20
46898;DHT22;32646;50.958;6.258;2024-01-30T11:43:02;11.90;86.10
46898;DHT22;32646;50.958;6.258;2024-01-30T11:45:29;11.80;88.30
46898;DHT22;32646;50.958;6.258;2024-01-30T11:47:56;11.70;89.90
46898;DHT22;32646;50.958;6.258;2024-01-30T11:50:24;11.70;89.00
46898;DHT22;32646;50.958;6.258;2024-01-30T11:52:51;11.80;88.00
46898;DHT22;32646;50.958;6.258;2024-01-30T11:55:19;11.80;86.70
46898;DHT22;32646;50.958;6.258;2024-01-30T11:57:46;11.80;87.10
46898;DHT22;32646;50.958;6.258;2024-01-30T12:00:17;11.70;89.00
46898;DHT22;32646;50.958;6.258;2024-01-30T12:02:49;11.80;89.60
46898;DHT22;32646;50.958;6.258;2024-01-30T12:05:16;11.80;90.00
46898;DHT22;32646;50.958;6.258;2024-01-30T12:07:45;11.80;87.30
46898;DHT22;32646;50.958;6.258;2024-01-30T12:10:13;12.00;86.90
46898;DHT22;32646;50.958;6.258;2024-01-30T12:12:45;12.10;84.10
46898;DHT22;32646;50.958;6.258;2024-01-30T12:15:13;12.20;81.20
46898;DHT22;32646;50.958;6.258;2024-01-30T12:17:40;12.30;81.00
46898;DHT22;32646;50.958;6.258;2024-01-30T12:20:09;12.30;80.50
46898;DHT22;32646;50.958;6.258;2024-01-30T12:22:41;12.30;79.80
46898;DHT22;32646;50.958;6.258;2024-01-30T12:25:12;12.30;80.00
46898;DHT22;32646;50.958;6.258;2024-01-30T12:27:41;12.30;79.30
46898;DHT22;32646;50.958;6.258;2024-01-30T12:30:12;12.20;82.40
46898;DHT22;32646;50.958;6.258;2024-01-30T12:32:41;12.10;83.00
46898;DHT22;32646;50.958;6.258;2024-01-30T12:35:13;12.10;82.60
46898;DHT22;32646;50.958;6.258;2024-01-30T12:37:41;12.00;83.30
46898;DHT22;32646;50.958;6.258;2024-01-30T12:40:09;12.10;81.50
46898;DHT22;32646;50.958;6.258;2024-01-30T12:42:36;12.00;83.20
46898;DHT22;32646;50.958;6.258;2024-01-30T12:45:04;12.00;83.40
46898;DHT22;32646;50.958;6.258;2024-01-30T12:47:31;12.00;83.60
46898;DHT22;32646;50.958;6.258;2024-01-30T12:49:58;11.90;83.90
46898;DHT22;32646;50.958;6.258;2024-01-30T12:52:25;11.80;84.40
46898;DHT22;32646;50.958;6.258;2024-01-30T12:54:51;11.80;86.60
46898;DHT22;32646;50.958;6.258;2024-01-30T12:57:18;11.70;90.00
46898;DHT22;32646;50.958;6.258;2024-01-30T12:59:45;11.70;88.70
46898;DHT22;32646;50.958;6.258;2024-01-30T13:02:13;11.60;90.30
46898;DHT22;32646;50.958;6.258;2024-01-30T13:04:40;11.60;91.20
46898;DHT22;32646;50.958;6.258;2024-01-30T13:07:07;11.50;92.20
46898;DHT22;32646;50.958;6.258;2024-01-30T13:09:33;11.60;91.90
46898;DHT22;32646;50.958;6.258;2024-01-30T13:12:00;11.50;92.70
46898;DHT22;32646;50.958;6.258;2024-01-30T13:14:27;11.50;93.30
46898;DHT22;32646;50.958;6.258;2024-01-30T13:16:53;11.50;93.10
46898;DHT22;32646;50.958;6.258;2024-01-30T13:19:20;11.50;93.20
46898;DHT22;32646;50.958;6.258;2024-01-30T13:21:47;11.50;92.70
46898;DHT22;32646;50.958;6.258;2024-01-30T13:24:14;11.50;92.50
46898;DHT22;32646;50.958;6.258;2024-01-30T13:26:42;11.50;92.40
46898;DHT22;32646;50.958;6.258;2024-01-30T13:29:09;11.60;91.70
46898;DHT22;32646;50.958;6.258;2024-01-30T13:31:36;11.60;92.20
46898;DHT22;32646;50.958;6.258;2024-01-30T13:34:03;11.70;91.80
46898;DHT22;32646;50.958;6.258;2024-01-30T13:36:33;11.70;91.30
46898;DHT22;32646;50.958;6.258;2024-01-30T13:38:59;11.70;91.60
46898;DHT22;32646;50.958;6.258;2024-01-30T13:41:26;11.70;92.00
46898;DHT22;32646;50.958;6.258;2024-01-30T13:43:53;11.60;91.70
46898;DHT22;32646;50.958;6.258;2024-01-30T13:46:19;11.60;92.40
46898;DHT22;32646;50.958;6.258;2024-01-30T13:48:46;11.60;92.60
46898;DHT22;32646;50.958;6.258;2024-01-30T13:51:13;11.60;91.80
46898;DHT22;32646;50.958;6.258;2024-01-30T13:53:40;11.60;92.40
46898;DHT22;32646;50.958;6.258;2024-01-30T13:56:08;11.60;92.90
46898;DHT22;32646;50.958;6.258;2024-01-30T13:58:35;11.50;93.00
46898;DHT22;32646;50.958;6.258;2024-01-30T14:01:02;11.50;93.80
46898;DHT22;32646;50.958;6.258;2024-01-30T14:03:29;11.50;94.40
46898;DHT22;32646;50.958;6.258;2024-01-30T14:05:55;11.40;95.70
46898;DHT22;32646;50.958;6.258;2024-01-30T14:08:22;11.40;96.30
46898;DHT22;32646;50.958;6.258;2024-01-30T14:10:49;11.40;96.70
46898;DHT22;32646;50.958;6.258;2024-01-30T14:13:15;11.30;98.10
46898;DHT22;32646;50.958;6.258;2024-01-30T14:15:42;11.30;98.80
46898;DHT22;32646;50.958;6.258;2024-01-30T14:18:09;11.10;99.90
46898;DHT22;32646;50.958;6.258;2024-01-30T14:20:35;11.10;99.90
46898;DHT22;32646;50.958;6.258;2024-01-30T14:23:02;11.10;99.90
46898;DHT22;32646;50.958;6.258;2024-01-30T14:25:29;11.10;99.90
46898;DHT22;32646;50.958;6.258;2024-01-30T14:27:55;11.00;99.90
46898;DHT22;32646;50.958;6.258;2024-01-30T14:30:22;10.90;99.90
46898;DHT22;32646;50.958;6.258;2024-01-30T14:32:49;10.90;99.90
46898;DHT22;32646;50.958;6.258;2024-01-30T14:35:16;10.90;99.90
46898;DHT22;32646;50.958;6.258;2024-01-30T14:37:43;10.90;99.90
46898;DHT22;32646;50.958;6.258;2024-01-30T14:40:10;10.90;99.90
46898;DHT22;32646;50.958;6.258;2024-01-30T14:42:36;10.90;99.90
46898;DHT22;32646;50.958;6.258;2024-01-30T14:45:05;10.90;99.50
46898;DHT22;32646;50.958;6.258;2024-01-30T14:47:31;10.80;98.50
46898;DHT22;32646;50.958;6.258;2024-01-30T14:49:58;10.80;98.10
46898;DHT22;32646;50.958;6.258;2024-01-30T14:52:25;10.70;97.80
46898;DHT22;32646;50.958;6.258;2024-01-30T14:54:51;10.60;98.30
46898;DHT22;32646;50.958;6.258;2024-01-30T14:57:18;10.60;98.70
46898;DHT22;32646;50.958;6.258;2024-01-30T14:59:45;10.60;94.20
46898;DHT22;32646;50.958;6.258;2024-01-30T15:02:13;10.50;92.40
46898;DHT22;32646;50.958;6.258;2024-01-30T15:04:39;10.50;92.70
46898;DHT22;32646;50.958;6.258;2024-01-30T15:07:06;10.50;91.80
46898;DHT22;32646;50.958;6.258;2024-01-30T15:09:33;10.50;90.30
46898;DHT22;32646;50.958;6.258;2024-01-30T15:12:00;10.50;86.00
46898;DHT22;32646;50.958;6.258;2024-01-30T15:14:27;10.50;85.40
46898;DHT22;32646;50.958;6.258;2024-01-30T15:16:53;10.40;83.80
46898;DHT22;32646;50.958;6.258;2024-01-30T15:19:20;10.40;84.20
46898;DHT22;32646;50.958;6.258;2024-01-30T15:21:47;10.30;84.70
46898;DHT22;32646;50.958;6.258;2024-01-30T15:24:14;10.30;84.30
46898;DHT22;32646;50.958;6.258;2024-01-30T15:26:41;10.30;85.20
46898;DHT22;32646;50.958;6.258;2024-01-30T15:29:07;10.20;85.90
46898;DHT22;32646;50.958;6.258;2024-01-30T15:31:34;10.20;84.90
46898;DHT22;32646;50.958;6.258;2024-01-30T15:34:00;10.20;83.40
46898;DHT22;32646;50.958;6.258;2024-01-30T15:36:28;10.20;84.50
46898;DHT22;32646;50.958;6.258;2024-01-30T15:38:55;10.20;85.60